createdAt,value
2016-12-14T00:00:17.303Z,85.39
2016-12-14T00:00:45.547Z,85.48
2016-12-14T00:01:13.909Z,85.58
2016-12-14T00:01:42.460Z,85.58
2016-12-14T00:02:10.615Z,85.58
2016-12-14T00:02:38.762Z,85.68
2016-12-14T00:03:06.975Z,85.58
2016-12-14T00:03:34.977Z,85.68
2016-12-14T00:04:03.256Z,85.77
2016-12-14T00:04:31.440Z,85.58
2016-12-14T00:04:59.706Z,85.48
2016-12-14T00:05:27.845Z,85.29
2016-12-14T00:05:56.037Z,85.58
2016-12-14T00:06:24.250Z,85.48
2016-12-14T00:06:52.181Z,85.77
2016-12-14T00:07:20.399Z,85.87
2016-12-14T00:07:48.536Z,85.19
2016-12-14T00:08:16.689Z,85.19
2016-12-14T00:08:45.192Z,85.19
2016-12-14T00:09:13.371Z,85.29
2016-12-14T00:09:41.830Z,85.39
2016-12-14T00:10:10.147Z,85.29
2016-12-14T00:10:38.305Z,85.29
2016-12-14T00:11:06.538Z,85.39
2016-12-14T00:11:34.829Z,85.19
2016-12-14T00:12:03.223Z,85.19
2016-12-14T00:12:31.475Z,84.9
2016-12-14T00:12:59.541Z,84.71
2016-12-14T00:13:27.929Z,84.9
2016-12-14T00:13:56.175Z,85.19
2016-12-14T00:14:24.395Z,85.1
2016-12-14T00:14:52.322Z,85
2016-12-14T00:15:20.567Z,85.39
2016-12-14T00:15:48.714Z,85.39
2016-12-14T00:16:16.794Z,85.19
2016-12-14T00:16:44.953Z,85.19
2016-12-14T00:17:13.074Z,85.1
2016-12-14T00:17:41.145Z,85
2016-12-14T00:18:09.293Z,85.29
2016-12-14T00:18:37.427Z,85.39
2016-12-14T00:19:05.315Z,85.19
2016-12-14T00:19:33.517Z,85.1
2016-12-14T00:20:01.723Z,85.19
2016-12-14T00:20:30.169Z,85.1
2016-12-14T00:20:58.646Z,85.1
2016-12-14T00:21:26.778Z,85
2016-12-14T00:21:54.862Z,85.29
2016-12-14T00:22:23.073Z,85.19
2016-12-14T00:22:51.316Z,85.19
2016-12-14T00:23:19.535Z,85.1
2016-12-14T00:23:47.691Z,85
2016-12-14T00:24:16.068Z,85.1
2016-12-14T00:24:44.343Z,85.29
2016-12-14T00:25:12.496Z,85.29
2016-12-14T00:25:40.669Z,85.19
2016-12-14T00:26:08.812Z,85.19
2016-12-14T00:26:36.871Z,85.29
2016-12-14T00:27:05.018Z,85.58
2016-12-14T00:27:33.279Z,85.68
2016-12-14T00:28:01.271Z,85.68
2016-12-14T00:28:29.519Z,85.48
2016-12-14T00:28:57.836Z,85.58
2016-12-14T00:29:25.968Z,85.48
2016-12-14T00:29:54.389Z,85.58
2016-12-14T00:30:22.537Z,85.58
2016-12-14T00:30:50.632Z,85.58
2016-12-14T00:31:18.657Z,85.58
2016-12-14T00:31:47.072Z,85.58
2016-12-14T00:32:15.181Z,85.29
2016-12-14T00:32:43.264Z,85.68
2016-12-14T00:33:11.133Z,85.58
2016-12-14T00:33:39.308Z,85.77
2016-12-14T00:34:07.560Z,85.68
2016-12-14T00:34:35.802Z,85.58
2016-12-14T00:35:04.135Z,85.77
2016-12-14T00:35:32.784Z,85.58
2016-12-14T00:36:01.103Z,85.58
2016-12-14T00:36:29.415Z,85.39
2016-12-14T00:36:57.598Z,84.61
2016-12-14T00:37:25.865Z,84.71
2016-12-14T00:37:54.006Z,84.61
2016-12-14T00:38:21.990Z,84.9
2016-12-14T00:38:50.096Z,84.9
2016-12-14T00:39:18.042Z,85
2016-12-14T00:39:46.146Z,84.8
2016-12-14T00:40:14.072Z,85
2016-12-14T00:40:42.200Z,84.8
2016-12-14T00:41:10.429Z,85.29
2016-12-14T00:41:38.626Z,85.39
2016-12-14T00:42:06.943Z,85.1
2016-12-14T00:42:34.941Z,85.48
2016-12-14T00:43:02.957Z,84.71
2016-12-14T00:43:30.796Z,85.39
2016-12-14T00:43:59.245Z,84.9
2016-12-14T00:44:27.595Z,84.8
2016-12-14T00:44:55.766Z,84.9
2016-12-14T00:45:23.806Z,85
2016-12-14T00:45:52.112Z,84.9
2016-12-14T00:46:20.424Z,84.9
2016-12-14T00:46:48.435Z,84.9
2016-12-14T00:47:16.600Z,84.8
2016-12-14T00:47:44.937Z,84.32
2016-12-14T00:48:13.409Z,84.32
2016-12-14T00:48:41.528Z,84.32
2016-12-14T00:49:10.128Z,84.03
2016-12-14T00:49:38.765Z,83.94
2016-12-14T00:50:06.843Z,84.47
2016-12-14T00:50:35.136Z,84.19
2016-12-14T00:51:03.340Z,84.32
2016-12-14T00:51:31.559Z,84.03
2016-12-14T00:51:59.736Z,83.89
2016-12-14T00:52:27.903Z,84.13
2016-12-14T00:52:56.199Z,84.28
2016-12-14T00:53:24.476Z,84.22
2016-12-14T00:53:52.796Z,84.38
2016-12-14T00:54:20.883Z,84.32
2016-12-14T00:54:49.063Z,84.03
2016-12-14T00:55:17.136Z,84.03
2016-12-14T00:55:45.482Z,83.89
2016-12-14T00:56:13.534Z,83.89
2016-12-14T00:56:41.762Z,83.89
2016-12-14T00:57:10.028Z,83.89
2016-12-14T00:57:38.282Z,83.99
2016-12-14T00:58:06.538Z,84.19
2016-12-14T00:58:34.648Z,83.61
2016-12-14T00:59:02.844Z,83.7
2016-12-14T00:59:31.095Z,84.09
2016-12-14T00:59:59.324Z,83.99
2016-12-14T01:00:27.588Z,83.7
2016-12-14T01:00:55.720Z,83.61
2016-12-14T01:01:23.758Z,84.19
2016-12-14T01:01:51.797Z,84.09
2016-12-14T01:02:19.980Z,83.99
2016-12-14T01:02:48.825Z,84.19
2016-12-14T01:03:16.861Z,83.99
2016-12-14T01:03:45.028Z,83.99
2016-12-14T01:04:13.385Z,83.99
2016-12-14T01:04:41.657Z,83.99
2016-12-14T01:05:09.723Z,83.99
2016-12-14T01:05:37.889Z,83.99
2016-12-14T01:06:06.561Z,83.99
2016-12-14T01:06:34.912Z,83.99
2016-12-14T01:07:02.839Z,83.89
2016-12-14T01:07:30.880Z,84.09
2016-12-14T01:07:59.002Z,83.99
2016-12-14T01:08:27.573Z,83.89
2016-12-14T01:08:55.726Z,84.19
2016-12-14T01:09:24.189Z,83.7
2016-12-14T01:09:52.247Z,83.7
2016-12-14T01:10:20.577Z,83.7
2016-12-14T01:10:48.690Z,83.22
2016-12-14T01:11:16.536Z,83.12
2016-12-14T01:11:44.669Z,83.22
2016-12-14T01:12:12.876Z,83.12
2016-12-14T01:12:40.976Z,83.22
2016-12-14T01:13:09.209Z,82.83
2016-12-14T01:13:37.466Z,82.93
2016-12-14T01:14:05.604Z,83.31
2016-12-14T01:14:33.669Z,83.41
2016-12-14T01:15:01.840Z,83.41
2016-12-14T01:15:29.913Z,83.41
2016-12-14T01:15:57.882Z,83.31
2016-12-14T01:16:26.076Z,83.12
2016-12-14T01:16:54.040Z,83.51
2016-12-14T01:17:22.127Z,83.8
2016-12-14T01:17:50.105Z,83.89
2016-12-14T01:18:18.321Z,83.61
2016-12-14T01:18:46.660Z,83.8
2016-12-14T01:19:14.960Z,83.7
2016-12-14T01:19:43.151Z,83.61
2016-12-14T01:20:11.440Z,83.41
2016-12-14T01:20:39.554Z,83.8
2016-12-14T01:21:07.656Z,83.99
2016-12-14T01:21:35.955Z,83.89
2016-12-14T01:22:04.011Z,83.95
2016-12-14T01:22:32.171Z,83.75
2016-12-14T01:23:00.360Z,84.09
2016-12-14T01:23:28.354Z,83.66
2016-12-14T01:23:56.463Z,84.09
2016-12-14T01:24:24.715Z,84.19
2016-12-14T01:24:52.869Z,84.05
2016-12-14T01:25:21.040Z,84.09
2016-12-14T01:25:49.235Z,84.14
2016-12-14T01:26:17.455Z,84.19
2016-12-14T01:26:45.611Z,83.61
2016-12-14T01:27:13.882Z,83.7
2016-12-14T01:27:41.953Z,83.61
2016-12-14T01:28:10.284Z,83.41
2016-12-14T01:28:38.583Z,83.61
2016-12-14T01:29:06.805Z,83.8
2016-12-14T01:29:35.151Z,83.56
2016-12-14T01:30:03.137Z,83.51
2016-12-14T01:30:31.185Z,83.22
2016-12-14T01:30:59.298Z,83.18
2016-12-14T01:31:27.603Z,83.31
2016-12-14T01:31:55.653Z,83.37
2016-12-14T01:32:23.509Z,83.27
2016-12-14T01:32:51.730Z,83.27
2016-12-14T01:33:19.916Z,83.37
2016-12-14T01:33:47.981Z,83.37
2016-12-14T01:34:16.263Z,83.47
2016-12-14T01:34:44.624Z,83.18
2016-12-14T01:35:12.800Z,83.18
2016-12-14T01:35:40.988Z,83.27
2016-12-14T01:36:09.022Z,83.08
2016-12-14T01:36:37.256Z,83.27
2016-12-14T01:37:05.375Z,82.79
2016-12-14T01:37:33.650Z,82.6
2016-12-14T01:38:01.595Z,82.6
2016-12-14T01:38:29.803Z,82.69
2016-12-14T01:38:57.919Z,82.31
2016-12-14T01:39:26.241Z,82.31
2016-12-14T01:39:54.398Z,83.08
2016-12-14T01:40:22.485Z,82.79
2016-12-14T01:40:50.574Z,82.6
2016-12-14T01:41:18.720Z,82.79
2016-12-14T01:41:46.828Z,82.79
2016-12-14T01:42:14.932Z,82.79
2016-12-14T01:42:43.163Z,82.79
2016-12-14T01:43:11.394Z,82.89
2016-12-14T01:43:39.418Z,82.79
2016-12-14T01:44:07.446Z,82.98
2016-12-14T01:44:35.708Z,82.79
2016-12-14T01:45:04.009Z,82.6
2016-12-14T01:45:32.275Z,82.98
2016-12-14T01:46:00.360Z,82.98
2016-12-14T01:46:28.565Z,82.6
2016-12-14T01:46:56.715Z,82.79
2016-12-14T01:47:24.932Z,82.69
2016-12-14T01:47:53.130Z,82.6
2016-12-14T01:48:21.140Z,82.6
2016-12-14T01:48:49.331Z,82.4
2016-12-14T01:49:17.597Z,82.5
2016-12-14T01:49:45.849Z,82.21
2016-12-14T01:50:14.195Z,82.4
2016-12-14T01:50:42.356Z,82.4
2016-12-14T01:51:10.427Z,82.11
2016-12-14T01:51:38.677Z,81.73
2016-12-14T01:52:06.910Z,82.02
2016-12-14T01:52:34.976Z,82.02
2016-12-14T01:53:03.234Z,82.21
2016-12-14T01:53:31.462Z,81.92
2016-12-14T01:53:59.689Z,81.73
2016-12-14T01:54:27.966Z,81.57
2016-12-14T01:54:56.309Z,81.44
2016-12-14T01:55:24.298Z,81.29
2016-12-14T01:55:52.413Z,80.95
2016-12-14T01:56:20.562Z,80.57
2016-12-14T01:56:48.765Z,80.32
2016-12-14T01:57:17.021Z,80.32
2016-12-14T01:57:45.103Z,79.74
2016-12-14T01:58:13.157Z,79.83
2016-12-14T01:58:41.272Z,79.8
2016-12-14T01:59:09.478Z,80.12
2016-12-14T01:59:37.816Z,79.7
2016-12-14T02:00:05.994Z,79.25
2016-12-14T02:00:34.216Z,79.25
2016-12-14T02:01:02.160Z,79.16
2016-12-14T02:01:30.224Z,78.96
2016-12-14T02:01:58.499Z,78.48
2016-12-14T02:02:26.674Z,78.77
2016-12-14T02:02:54.951Z,78.96
2016-12-14T02:03:22.974Z,78.48
2016-12-14T02:03:51.057Z,78.19
2016-12-14T02:04:19.088Z,78.29
2016-12-14T02:04:47.485Z,77.8
2016-12-14T02:05:15.587Z,78
2016-12-14T02:05:43.872Z,78.19
2016-12-14T02:06:11.956Z,78
2016-12-14T02:06:40.065Z,77.42
2016-12-14T02:07:08.217Z,77.42
2016-12-14T02:07:36.351Z,77.22
2016-12-14T02:08:04.650Z,77.32
2016-12-14T02:08:32.725Z,77.51
2016-12-14T02:09:00.831Z,77.51
2016-12-14T02:09:28.916Z,77.61
2016-12-14T02:09:57.210Z,76.93
2016-12-14T02:10:25.450Z,76.93
2016-12-14T02:10:53.703Z,76.93
2016-12-14T02:11:21.827Z,77.32
2016-12-14T02:11:50.017Z,77.42
2016-12-14T02:12:18.145Z,77.51
2016-12-14T02:12:46.428Z,77.51
2016-12-14T02:13:14.630Z,77.42
2016-12-14T02:13:42.877Z,77.32
2016-12-14T02:14:11.061Z,77.42
2016-12-14T02:14:39.170Z,77.42
2016-12-14T02:15:07.464Z,77.22
2016-12-14T02:15:35.692Z,77.51
2016-12-14T02:16:03.869Z,77.61
2016-12-14T02:16:32.001Z,77.42
2016-12-14T02:16:59.936Z,77.51
2016-12-14T02:17:27.939Z,77.32
2016-12-14T02:17:56.117Z,77.8
2016-12-14T02:18:24.322Z,77.51
2016-12-14T02:18:52.373Z,77.42
2016-12-14T02:19:20.424Z,77.61
2016-12-14T02:19:48.500Z,77.61
2016-12-14T02:20:16.690Z,77.8
2016-12-14T02:20:44.945Z,77.61
2016-12-14T02:21:13.111Z,77.51
2016-12-14T02:21:41.290Z,78.19
2016-12-14T02:22:09.359Z,77.9
2016-12-14T02:22:37.500Z,77.8
2016-12-14T02:23:05.623Z,78.19
2016-12-14T02:23:33.884Z,78.19
2016-12-14T02:24:02.064Z,78
2016-12-14T02:24:30.182Z,78.38
2016-12-14T02:24:58.445Z,78.09
2016-12-14T02:25:26.594Z,78.48
2016-12-14T02:25:54.668Z,78.48
2016-12-14T02:26:22.678Z,78.38
2016-12-14T02:26:50.653Z,78.58
2016-12-14T02:27:18.866Z,78.58
2016-12-14T02:27:47.049Z,78.29
2016-12-14T02:28:15.234Z,78.38
2016-12-14T02:28:43.517Z,78.58
2016-12-14T02:29:11.830Z,78.87
2016-12-14T02:29:39.827Z,78.48
2016-12-14T02:30:07.952Z,78.83
2016-12-14T02:30:36.260Z,78.67
2016-12-14T02:31:04.467Z,79.12
2016-12-14T02:31:32.516Z,79.12
2016-12-14T02:32:00.657Z,79.54
2016-12-14T02:32:28.739Z,79.12
2016-12-14T02:32:56.981Z,79.22
2016-12-14T02:33:25.109Z,79.41
2016-12-14T02:33:53.368Z,79.31
2016-12-14T02:34:21.331Z,79.12
2016-12-14T02:34:49.530Z,79.31
2016-12-14T02:35:17.855Z,79.22
2016-12-14T02:35:46.009Z,79.22
2016-12-14T02:36:14.228Z,79.41
2016-12-14T02:36:42.233Z,79.02
2016-12-14T02:37:10.472Z,79.31
2016-12-14T02:37:38.637Z,79.02
2016-12-14T02:38:06.875Z,79.99
2016-12-14T02:38:34.948Z,79.7
2016-12-14T02:39:03.172Z,79.7
2016-12-14T02:39:31.590Z,79.6
2016-12-14T02:39:59.793Z,79.5
2016-12-14T02:40:28.012Z,79.5
2016-12-14T02:40:56.117Z,79.8
2016-12-14T02:41:24.230Z,79.7
2016-12-14T02:41:52.256Z,79.7
2016-12-14T02:42:20.394Z,79.99
2016-12-14T02:42:48.524Z,80.08
2016-12-14T02:43:16.632Z,79.99
2016-12-14T02:43:44.672Z,80.08
2016-12-14T02:44:12.742Z,80.18
2016-12-14T02:44:41.005Z,80.18
2016-12-14T02:45:09.300Z,80.18
2016-12-14T02:45:37.431Z,80.08
2016-12-14T02:46:05.606Z,80.18
2016-12-14T02:46:33.658Z,80.28
2016-12-14T02:47:01.825Z,79.99
2016-12-14T02:47:30.033Z,79.89
2016-12-14T02:47:58.134Z,80.08
2016-12-14T02:48:26.173Z,80.66
2016-12-14T02:48:54.303Z,80.28
2016-12-14T02:49:22.498Z,80.76
2016-12-14T02:49:50.750Z,80.66
2016-12-14T02:50:19.214Z,80.62
2016-12-14T02:50:47.370Z,81.11
2016-12-14T02:51:15.362Z,80.62
2016-12-14T02:51:43.679Z,81.01
2016-12-14T02:52:11.647Z,81.4
2016-12-14T02:52:39.823Z,81.3
2016-12-14T02:53:07.896Z,81.3
2016-12-14T02:53:36.065Z,81.2
2016-12-14T02:54:04.130Z,81.4
2016-12-14T02:54:32.307Z,81.3
2016-12-14T02:55:00.595Z,81.4
2016-12-14T02:55:28.927Z,81.49
2016-12-14T02:55:56.891Z,81.68
2016-12-14T02:56:24.998Z,81.49
2016-12-14T02:56:53.279Z,81.49
2016-12-14T02:57:21.337Z,81.49
2016-12-14T02:57:49.392Z,81.59
2016-12-14T02:58:17.430Z,81.68
2016-12-14T02:58:45.509Z,81.4
2016-12-14T02:59:13.670Z,81.49
2016-12-14T02:59:41.937Z,81.59
2016-12-14T03:00:10.093Z,81.78
2016-12-14T03:00:38.333Z,82.17
2016-12-14T03:01:06.511Z,82.07
2016-12-14T03:01:34.616Z,81.88
2016-12-14T03:02:02.802Z,81.88
2016-12-14T03:02:30.952Z,81.78
2016-12-14T03:02:58.755Z,81.88
2016-12-14T03:03:26.786Z,82.46
2016-12-14T03:03:54.948Z,82.17
2016-12-14T03:04:23.096Z,82.46
2016-12-14T03:04:51.251Z,82.17
2016-12-14T03:05:19.438Z,82.46
2016-12-14T03:05:47.749Z,82.56
2016-12-14T03:06:16.091Z,82.75
2016-12-14T03:06:44.324Z,82.56
2016-12-14T03:07:12.504Z,82.75
2016-12-14T03:07:40.750Z,82.84
2016-12-14T03:08:08.827Z,83.23
2016-12-14T03:08:36.775Z,83.04
2016-12-14T03:09:04.841Z,83.04
2016-12-14T03:09:33.005Z,83.23
2016-12-14T03:10:01.251Z,83.14
2016-12-14T03:10:29.582Z,83.14
2016-12-14T03:10:57.655Z,82.94
2016-12-14T03:11:26.041Z,82.94
2016-12-14T03:11:54.131Z,82.94
2016-12-14T03:12:22.222Z,83.72
2016-12-14T03:12:50.408Z,83.52
2016-12-14T03:13:18.566Z,83.72
2016-12-14T03:13:46.511Z,83.33
2016-12-14T03:14:14.768Z,83.42
2016-12-14T03:14:42.841Z,83.42
2016-12-14T03:15:11.076Z,84.1
2016-12-14T03:15:39.408Z,83.72
2016-12-14T03:16:07.421Z,83.81
2016-12-14T03:16:35.416Z,84
2016-12-14T03:17:03.233Z,83.91
2016-12-14T03:17:31.413Z,83.42
2016-12-14T03:17:59.497Z,84.1
2016-12-14T03:18:27.642Z,84
2016-12-14T03:18:55.907Z,84
2016-12-14T03:19:23.964Z,83.81
2016-12-14T03:19:52.131Z,83.91
2016-12-14T03:20:20.459Z,84
2016-12-14T03:20:48.595Z,83.91
2016-12-14T03:21:16.722Z,84.39
2016-12-14T03:21:44.817Z,84.39
2016-12-14T03:22:12.810Z,84.2
2016-12-14T03:22:40.895Z,84.2
2016-12-14T03:23:09.172Z,83.81
2016-12-14T03:23:37.369Z,84.2
2016-12-14T03:24:05.411Z,84.39
2016-12-14T03:24:33.498Z,84.78
2016-12-14T03:25:01.723Z,84.83
2016-12-14T03:25:30.057Z,84.78
2016-12-14T03:25:58.445Z,84.44
2016-12-14T03:26:26.714Z,84.83
2016-12-14T03:26:54.962Z,84.74
2016-12-14T03:27:23.219Z,84.97
2016-12-14T03:27:51.361Z,84.64
2016-12-14T03:28:19.464Z,84.68
2016-12-14T03:28:47.728Z,85.22
2016-12-14T03:29:16.218Z,85.22
2016-12-14T03:29:44.399Z,85.12
2016-12-14T03:30:12.590Z,84.68
2016-12-14T03:30:40.799Z,84.68
2016-12-14T03:31:08.956Z,84.68
2016-12-14T03:31:37.339Z,85.26
2016-12-14T03:32:05.567Z,85.06
2016-12-14T03:32:33.623Z,84.88
2016-12-14T03:33:01.766Z,85.06
2016-12-14T03:33:30.107Z,84.97
2016-12-14T03:33:58.233Z,85.55
2016-12-14T03:34:26.220Z,85.55
2016-12-14T03:34:54.718Z,85.45
2016-12-14T03:35:22.917Z,85.45
2016-12-14T03:35:51.180Z,85.45
2016-12-14T03:36:19.269Z,85.64
2016-12-14T03:36:47.382Z,86.13
2016-12-14T03:37:15.509Z,86.03
2016-12-14T03:37:43.690Z,86.42
2016-12-14T03:38:11.725Z,85.74
2016-12-14T03:38:39.915Z,86.13
2016-12-14T03:39:08.035Z,86.42
2016-12-14T03:39:35.907Z,86.13
2016-12-14T03:40:04.119Z,86.32
2016-12-14T03:40:32.315Z,86.61
2016-12-14T03:41:00.608Z,85.6
2016-12-14T03:41:28.669Z,85.8
2016-12-14T03:41:56.853Z,86.47
2016-12-14T03:42:25.220Z,86.47
2016-12-14T03:42:53.483Z,86.42
2016-12-14T03:43:21.570Z,86.76
2016-12-14T03:43:49.679Z,86.47
2016-12-14T03:44:17.773Z,86.47
2016-12-14T03:44:45.969Z,87.05
2016-12-14T03:45:14.373Z,86.76
2016-12-14T03:45:42.412Z,86.86
2016-12-14T03:46:10.846Z,87.34
2016-12-14T03:46:39.124Z,86.96
2016-12-14T03:47:07.206Z,87.05
2016-12-14T03:47:35.427Z,87.05
2016-12-14T03:48:03.638Z,87.34
2016-12-14T03:48:31.714Z,87.63
2016-12-14T03:48:59.701Z,87.92
2016-12-14T03:49:27.665Z,87.53
2016-12-14T03:49:56.080Z,87.63
2016-12-14T03:50:24.144Z,88.31
2016-12-14T03:50:52.309Z,88.21
2016-12-14T03:51:20.604Z,87.92
2016-12-14T03:51:48.599Z,88.11
2016-12-14T03:52:16.790Z,88.31
2016-12-14T03:52:44.928Z,88.5
2016-12-14T03:53:13.083Z,88.02
2016-12-14T03:53:41.362Z,88.21
2016-12-14T03:54:09.496Z,88.11
2016-12-14T03:54:37.804Z,88.69
2016-12-14T03:55:06.025Z,88.5
2016-12-14T03:55:34.134Z,88.79
2016-12-14T03:56:02.488Z,88.21
2016-12-14T03:56:30.833Z,88.69
2016-12-14T03:56:58.991Z,88.79
2016-12-14T03:57:27.266Z,88.11
2016-12-14T03:57:55.631Z,88.59
2016-12-14T03:58:23.785Z,88.89
2016-12-14T03:58:51.915Z,88.79
2016-12-14T03:59:20.067Z,88.69
2016-12-14T03:59:48.237Z,88.4
2016-12-14T04:00:16.416Z,88.69
2016-12-14T04:00:44.368Z,89.07
2016-12-14T04:01:12.744Z,88.79
2016-12-14T04:01:40.919Z,89.07
2016-12-14T04:02:09.116Z,89.27
2016-12-14T04:02:37.264Z,89.37
2016-12-14T04:03:05.735Z,89.37
2016-12-14T04:03:33.898Z,89.27
2016-12-14T04:04:02.058Z,89.17
2016-12-14T04:04:30.201Z,89.95
2016-12-14T04:04:58.272Z,89.75
2016-12-14T04:05:26.232Z,89.95
2016-12-14T04:05:54.623Z,89.56
2016-12-14T04:06:22.864Z,89.75
2016-12-14T04:06:50.912Z,89.75
2016-12-14T04:07:19.350Z,89.56
2016-12-14T04:07:47.588Z,89.75
2016-12-14T04:08:15.826Z,89.75
2016-12-14T04:08:43.709Z,89.47
2016-12-14T04:09:11.938Z,89.75
2016-12-14T04:09:40.351Z,89.75
2016-12-14T04:10:08.499Z,89.65
2016-12-14T04:10:36.606Z,89.85
2016-12-14T04:11:04.603Z,89.75
2016-12-14T04:11:32.987Z,89.85
2016-12-14T04:12:01.187Z,89.65
2016-12-14T04:12:29.214Z,90.23
2016-12-14T04:12:57.363Z,89.75
2016-12-14T04:13:25.437Z,90.43
2016-12-14T04:13:53.494Z,90.33
2016-12-14T04:14:21.749Z,90.53
2016-12-14T04:14:49.872Z,90.72
2016-12-14T04:15:17.997Z,90.33
2016-12-14T04:15:45.830Z,90.14
2016-12-14T04:16:13.992Z,90
2016-12-14T04:16:42.448Z,90.81
2016-12-14T04:17:10.545Z,90.62
2016-12-14T04:17:39.036Z,90.29
2016-12-14T04:18:07.126Z,90.58
2016-12-14T04:18:35.475Z,90.53
2016-12-14T04:19:03.772Z,90.77
2016-12-14T04:19:32.027Z,91.01
2016-12-14T04:20:00.038Z,91.01
2016-12-14T04:20:28.237Z,90.81
2016-12-14T04:20:56.730Z,91.01
2016-12-14T04:21:25.085Z,91.2
2016-12-14T04:21:53.667Z,90.81
2016-12-14T04:22:21.793Z,91.01
2016-12-14T04:22:50.182Z,90.72
2016-12-14T04:23:18.271Z,90.81
2016-12-14T04:23:46.660Z,90.72
2016-12-14T04:24:14.733Z,90.72
2016-12-14T04:24:42.696Z,90.62
2016-12-14T04:25:10.828Z,90.81
2016-12-14T04:25:38.895Z,90.81
2016-12-14T04:26:06.870Z,90.81
2016-12-14T04:26:35.278Z,90.72
2016-12-14T04:27:03.705Z,90.81
2016-12-14T04:27:32.119Z,90.81
2016-12-14T04:28:00.223Z,90.81
2016-12-14T04:28:28.400Z,91.01
2016-12-14T04:28:56.784Z,91.2
2016-12-14T04:29:24.862Z,91.2
2016-12-14T04:29:52.888Z,91.01
2016-12-14T04:30:20.841Z,91.11
2016-12-14T04:30:48.871Z,91.01
2016-12-14T04:31:17.101Z,91.2
2016-12-14T04:31:45.483Z,91.39
2016-12-14T04:32:13.470Z,91.2
2016-12-14T04:32:41.493Z,91.68
2016-12-14T04:33:09.633Z,91.59
2016-12-14T04:33:37.794Z,91.3
2016-12-14T04:34:06.050Z,91.59
2016-12-14T04:34:34.499Z,91.97
2016-12-14T04:35:02.902Z,91.68
2016-12-14T04:35:31.085Z,91.68
2016-12-14T04:35:59.267Z,91.39
2016-12-14T04:36:28.131Z,91.49
2016-12-14T04:36:56.096Z,91.39
2016-12-14T04:37:24.156Z,91.68
2016-12-14T04:37:52.632Z,91.97
2016-12-14T04:38:20.560Z,91.88
2016-12-14T04:38:48.658Z,92.07
2016-12-14T04:39:16.776Z,91.97
2016-12-14T04:39:44.898Z,92.26
2016-12-14T04:40:13.036Z,92.26
2016-12-14T04:40:40.975Z,92.26
2016-12-14T04:41:09.239Z,92.65
2016-12-14T04:41:37.417Z,92.46
2016-12-14T04:42:05.621Z,92.65
2016-12-14T04:42:34.107Z,93.04
2016-12-14T04:43:02.221Z,92.84
2016-12-14T04:43:30.263Z,92.84
2016-12-14T04:43:58.442Z,93.28
2016-12-14T04:44:26.473Z,93.37
2016-12-14T04:44:54.816Z,92.94
2016-12-14T04:45:23.242Z,93.32
2016-12-14T04:45:51.746Z,93.32
2016-12-14T04:46:19.909Z,93.57
2016-12-14T04:46:48.505Z,93.28
2016-12-14T04:47:16.535Z,93.28
2016-12-14T04:47:44.661Z,93.66
2016-12-14T04:48:12.826Z,93.66
2016-12-14T04:48:40.969Z,93.85
2016-12-14T04:49:09.397Z,93.95
2016-12-14T04:49:37.645Z,94.15
2016-12-14T04:50:05.730Z,93.85
2016-12-14T04:50:34.869Z,93.95
2016-12-14T04:51:03.143Z,93.95
2016-12-14T04:51:31.297Z,94.24
2016-12-14T04:51:59.391Z,94.53
2016-12-14T04:52:27.732Z,94.73
2016-12-14T04:52:56.023Z,94.53
2016-12-14T04:53:24.215Z,94.73
2016-12-14T04:53:52.215Z,94.53
2016-12-14T04:54:20.711Z,94.82
2016-12-14T04:54:48.851Z,94.82
2016-12-14T04:55:16.997Z,94.63
2016-12-14T04:55:45.439Z,95.31
2016-12-14T04:56:13.591Z,95.4
2016-12-14T04:56:41.808Z,95.01
2016-12-14T04:57:10.069Z,95.31
2016-12-14T04:57:38.313Z,94.96
2016-12-14T04:58:06.612Z,95.5
2016-12-14T04:58:35.057Z,95.83
2016-12-14T04:59:03.091Z,95.59
2016-12-14T04:59:31.195Z,95.69
2016-12-14T04:59:59.297Z,95.59
2016-12-14T05:00:27.433Z,96.08
2016-12-14T05:00:55.441Z,96.17
2016-12-14T05:01:23.523Z,96.36
2016-12-14T05:01:51.861Z,96.08
2016-12-14T05:02:20.012Z,96.17
2016-12-14T05:02:48.092Z,96.08
2016-12-14T05:03:16.249Z,96.17
2016-12-14T05:03:44.536Z,96.94
2016-12-14T05:04:12.624Z,97.24
2016-12-14T05:04:40.866Z,97.14
2016-12-14T05:05:09.067Z,97.24
2016-12-14T05:05:37.100Z,97.42
2016-12-14T05:06:05.324Z,97.42
2016-12-14T05:06:33.318Z,97.91
2016-12-14T05:07:01.520Z,98.29
2016-12-14T05:07:29.825Z,97.81
2016-12-14T05:07:57.718Z,98.29
2016-12-14T05:08:25.825Z,97.91
2016-12-14T05:08:53.935Z,98.78
2016-12-14T05:09:22.054Z,98.49
2016-12-14T05:09:50.269Z,98.78
2016-12-14T05:10:18.383Z,98.68
2016-12-14T05:10:46.699Z,98.78
2016-12-14T05:11:14.631Z,98.68
2016-12-14T05:11:43.208Z,98.78
2016-12-14T05:12:11.262Z,98.87
2016-12-14T05:12:39.388Z,98.49
2016-12-14T05:13:07.557Z,98.49
2016-12-14T05:13:35.814Z,98.68
2016-12-14T05:14:03.846Z,98.87
2016-12-14T05:14:32.391Z,98.87
2016-12-14T05:15:00.775Z,98.87
2016-12-14T05:15:29.167Z,98.87
2016-12-14T05:15:57.189Z,98.97
2016-12-14T05:16:25.546Z,99.07
2016-12-14T05:16:53.722Z,99.07
2016-12-14T05:17:22.265Z,99.16
2016-12-14T05:17:50.232Z,99.16
2016-12-14T05:18:18.459Z,99.26
2016-12-14T05:18:46.555Z,99.16
2016-12-14T05:19:14.728Z,98.82
2016-12-14T05:19:43.140Z,99.16
2016-12-14T05:20:11.228Z,99.6
2016-12-14T05:20:39.212Z,98.87
2016-12-14T05:21:07.160Z,98.82
2016-12-14T05:21:35.340Z,99.02
2016-12-14T05:22:03.631Z,98.92
2016-12-14T05:22:31.775Z,99.21
2016-12-14T05:23:00.092Z,99.11
2016-12-14T05:23:28.226Z,99.21
2016-12-14T05:23:56.496Z,98.73
2016-12-14T05:24:24.772Z,98.82
2016-12-14T05:24:52.859Z,98.92
2016-12-14T05:25:21.353Z,98.82
2016-12-14T05:25:49.428Z,98.44
2016-12-14T05:26:17.719Z,98.34
2016-12-14T05:26:45.641Z,98.73
2016-12-14T05:27:13.773Z,98.63
2016-12-14T05:27:41.963Z,98.34
2016-12-14T05:28:10.106Z,98.34
2016-12-14T05:28:38.526Z,98.44
2016-12-14T05:29:06.514Z,98.54
2016-12-14T05:29:34.573Z,98.73
2016-12-14T05:30:02.717Z,98.34
2016-12-14T05:30:30.809Z,98.73
2016-12-14T05:30:58.880Z,98.63
2016-12-14T05:31:26.935Z,98.73
2016-12-14T05:31:55.112Z,98.44
2016-12-14T05:32:23.774Z,98.73
2016-12-14T05:32:51.719Z,98.82
2016-12-14T05:33:19.651Z,98.34
2016-12-14T05:33:47.781Z,98.34
2016-12-14T05:34:16.196Z,98.34
2016-12-14T05:34:44.824Z,98.44
2016-12-14T05:35:12.913Z,98.82
2016-12-14T05:35:41.167Z,98.63
2016-12-14T05:36:09.279Z,98.63
2016-12-14T05:36:37.169Z,98.73
2016-12-14T05:37:05.235Z,98.73
2016-12-14T05:37:33.579Z,98.73
2016-12-14T05:38:01.605Z,98.82
2016-12-14T05:38:29.887Z,98.82
2016-12-14T05:38:57.911Z,98.63
2016-12-14T05:39:26.081Z,98.87
2016-12-14T05:39:54.318Z,98.49
2016-12-14T05:40:22.483Z,98.54
2016-12-14T05:40:50.622Z,98.63
2016-12-14T05:41:19.038Z,98.49
2016-12-14T05:41:47.337Z,98.54
2016-12-14T05:42:15.410Z,98.44
2016-12-14T05:42:43.218Z,98.92
2016-12-14T05:43:11.436Z,98.82
2016-12-14T05:43:39.828Z,98.82
2016-12-14T05:44:07.928Z,98.82
2016-12-14T05:44:36.124Z,98.87
2016-12-14T05:45:04.327Z,98.39
2016-12-14T05:45:32.393Z,98.29
2016-12-14T05:46:00.620Z,98.29
2016-12-14T05:46:28.794Z,98.77
2016-12-14T05:46:57.265Z,98.77
2016-12-14T05:47:25.643Z,98.39
2016-12-14T05:47:53.715Z,98.54
2016-12-14T05:48:21.766Z,98.49
2016-12-14T05:48:50.106Z,98.68
2016-12-14T05:49:18.522Z,98.49
2016-12-14T05:49:46.621Z,98.77
2016-12-14T05:50:14.952Z,98.68
2016-12-14T05:50:43.166Z,98.77
2016-12-14T05:51:11.421Z,98.58
2016-12-14T05:51:39.577Z,98.92
2016-12-14T05:52:08.050Z,98.34
2016-12-14T05:52:36.472Z,98.29
2016-12-14T05:53:04.590Z,98.34
2016-12-14T05:53:32.761Z,98.68
2016-12-14T05:54:00.960Z,98.77
2016-12-14T05:54:29.097Z,98.82
2016-12-14T05:54:57.264Z,98.49
2016-12-14T05:55:25.411Z,98.58
2016-12-14T05:55:53.403Z,98.73
2016-12-14T05:56:21.589Z,98.49
2016-12-14T05:56:50.255Z,98.68
2016-12-14T05:57:18.167Z,98.34
2016-12-14T05:57:46.562Z,98.68
2016-12-14T05:58:14.490Z,98.49
2016-12-14T05:58:42.477Z,98.58
2016-12-14T05:59:10.533Z,98.68
2016-12-14T05:59:38.687Z,98.77
2016-12-14T06:00:07.044Z,98.97
2016-12-14T06:00:35.388Z,98.87
2016-12-14T06:01:03.532Z,99.16
2016-12-14T06:01:31.689Z,99.16
2016-12-14T06:01:59.946Z,98.87
2016-12-14T06:02:28.206Z,99.16
2016-12-14T06:02:56.339Z,98.77
2016-12-14T06:03:24.650Z,98.77
2016-12-14T06:03:52.615Z,98.68
2016-12-14T06:04:20.746Z,98.87
2016-12-14T06:04:48.794Z,98.73